Time;durP1;ratioP1;P1;durP2;ratioP2;P2;SDS_P1;SDS_P2;PMS_P1;PMS_P2;Temp;Humidity;BMP_temperature;BMP_pressure;BME280_temperature;BME280_humidity;BME280_pressure;Samples;Min_cycle;Max_cycle;Signal;HPM_P1;HPM_P2
2023/09/02 00:00:00;;;;;;;80.90;74.95;;;;;;;;;;1798724;79;25622;-64
2023/09/02 00:02:26;;;;;;;81.75;76.07;;;;;;;;;;1799083;79;25376;-65
2023/09/02 00:04:51;;;;;;;85.10;78.25;;;;;;;;;;1798843;79;27331;-64
2023/09/02 00:07:18;;;;;;;81.17;75.70;;;;;;;;;;1798716;79;33175;-64
2023/09/02 00:09:45;;;;;;;83.87;78.02;;;;;;;;;;1798866;79;25500;-64
2023/09/02 00:12:11;;;;;;;84.00;77.85;;;;;;;;;;1798897;79;35089;-64
2023/09/02 00:14:37;;;;;;;82.90;77.00;;;;;;;;;;1798822;79;32325;-64
2023/09/02 00:17:05;;;;;;;84.30;78.40;;;;;;;;;;1798894;79;28167;-64
2023/09/02 00:19:31;;;;;;;83.30;77.25;;;;;;;;;;1798698;79;27174;-64
2023/09/02 00:21:57;;;;;;;84.20;78.45;;;;;;;;;;1798809;79;25690;-64
2023/09/02 00:24:25;;;;;;;82.37;76.60;;;;;;;;;;1798668;79;25563;-64
2023/09/02 00:26:51;;;;;;;82.08;76.28;;;;;;;;;;1798845;79;25516;-64
2023/09/02 00:29:17;;;;;;;82.97;77.17;;;;;;;;;;1798815;79;28043;-64
2023/09/02 00:31:43;;;;;;;82.80;76.65;;;;;;;;;;1798750;79;33140;-64
2023/09/02 00:34:09;;;;;;;83.07;76.92;;;;;;;;;;1798814;79;29623;-64
2023/09/02 00:36:35;;;;;;;82.72;76.82;;;;;;;;;;1798753;79;34655;-64
2023/09/02 00:39:01;;;;;;;80.50;74.77;;;;;;;;;;1798827;79;25378;-65
2023/09/02 00:41:32;;;;;;;81.25;75.57;;;;;;;;;;1798827;79;27537;-64
2023/09/02 00:44:01;;;;;;;80.53;74.62;;;;;;;;;;1798705;79;25395;-64
2023/09/02 00:46:27;;;;;;;79.42;73.92;;;;;;;;;;1798779;79;25510;-64
2023/09/02 00:48:55;;;;;;;80.53;74.95;;;;;;;;;;1798773;79;25914;-65
2023/09/02 00:51:21;;;;;;;80.95;75.15;;;;;;;;;;1798846;79;25387;-64
2023/09/02 00:53:47;;;;;;;81.05;75.47;;;;;;;;;;1798764;79;27502;-64
2023/09/02 00:56:15;;;;;;;80.30;74.27;;;;;;;;;;1798708;79;28932;-64
2023/09/02 00:58:43;;;;;;;80.42;74.80;;;;;;;;;;1798959;79;25382;-64
2023/09/02 01:01:11;;;;;;;82.17;76.53;;;;;;;;;;1772127;79;26360;-64
2023/09/02 01:03:41;;;;;;;81.42;75.20;;;;;;;;;;1798975;79;25599;-64
2023/09/02 01:06:09;;;;;;;80.05;74.35;;;;;;;;;;1798983;79;27679;-65
2023/09/02 01:08:37;;;;;;;82.10;75.83;;;;;;;;;;1799158;79;25449;-67
2023/09/02 01:11:05;;;;;;;80.47;74.42;;;;;;;;;;1799010;79;25400;-65
2023/09/02 01:13:31;;;;;;;78.97;73.45;;;;;;;;;;1798918;79;25546;-64
2023/09/02 01:15:57;;;;;;;77.23;71.90;;;;;;;;;;1798990;79;25652;-64
2023/09/02 01:18:27;;;;;;;57.08;52.98;;;;;;;;;;1798917;79;27495;-64
2023/09/02 01:21:30;;;;;;;8.80;8.40;;;;;;;;;;1799015;79;25631;-64
2023/09/02 01:24:18;;;;;;;10.05;9.50;;;;;;;;;;1798077;79;25503;-64
2023/09/02 01:27:09;;;;;;;9.68;9.20;;;;;;;;;;1793735;79;25430;-62
2023/09/02 01:29:45;;;;;;;74.92;69.77;;;;;;;;;;1796318;79;25583;-63
2023/09/02 01:32:14;;;;;;;13.80;13.03;;;;;;;;;;1795865;79;27347;-63
2023/09/02 01:34:43;;;;;;;;;;;;;;;;;;1798876;79;25432;-63
2023/09/02 01:37:12;;;;;;;103.05;94.55;;;;;;;;;;1796155;79;25362;-64
2023/09/02 01:39:42;;;;;;;10.80;10.30;;;;;;;;;;1758142;79;26024;-63
2023/09/02 07:20:50;;;;;;;7.50;4.42;;;;;;;23.32;63.73;100549.84;1821864;77;25477;-65
2023/09/02 07:23:16;;;;;;;9.20;6.62;;;;;;;23.45;62.81;100543.38;1782534;80;25417;-66
2023/09/02 07:25:42;;;;;;;10.78;9.73;;;;;;;23.68;61.80;100543.00;1782502;79;27488;-66
2023/09/02 07:28:09;;;;;;;6.72;5.25;;;;;;;23.92;61.39;100547.00;1782372;80;25841;-66
2023/09/02 07:30:40;;;;;;;5.33;4.22;;;;;;;24.20;61.39;100556.48;1782555;79;25550;-66
2023/09/02 07:33:06;;;;;;;5.87;5.10;;;;;;;24.48;61.18;100554.86;1782494;79;25384;-66
2023/09/02 07:35:38;;;;;;;9.50;5.25;;;;;;;24.74;59.92;100561.35;1782455;80;25435;-64
2023/09/02 07:38:09;;;;;;;42.40;39.75;;;;;;;24.96;58.29;100558.49;1782588;80;28256;-64
2023/09/02 07:40:35;;;;;;;69.37;65.50;;;;;;;25.14;58.13;100552.90;1782422;80;25519;-62
2023/09/02 07:43:06;;;;;;;71.33;67.22;;;;;;;25.46;56.87;100560.28;1782458;80;25603;-64
2023/09/02 07:45:33;;;;;;;69.00;64.92;;;;;;;25.75;56.41;100558.72;1782466;79;25397;-65
2023/09/02 07:47:59;;;;;;;67.85;64.00;;;;;;;25.96;54.61;100562.72;1782488;79;25392;-63
2023/09/02 07:50:25;;;;;;;66.55;62.78;;;;;;;26.17;53.33;100559.00;1782484;80;27512;-63
2023/09/02 07:52:51;;;;;;;68.10;64.12;;;;;;;26.38;53.13;100570.48;1782317;79;25607;-59
2023/09/02 07:55:17;;;;;;;66.62;62.53;;;;;;;26.59;52.12;100572.84;1782403;79;25583;-58
2023/09/02 07:57:44;;;;;;;66.42;62.73;;;;;;;26.91;51.77;100570.35;1782404;80;25460;-60
2023/09/02 08:00:13;;;;;;;66.50;62.90;;;;;;;27.18;49.95;100576.73;1782495;80;25511;-60
2023/09/02 08:02:39;;;;;;;66.85;63.17;;;;;;;27.30;49.33;100582.37;1782493;80;27098;-59
2023/09/02 08:05:10;;;;;;;66.10;62.13;;;;;;;27.51;48.97;100571.55;1782423;79;25736;-59
2023/09/02 08:07:37;;;;;;;66.17;62.20;;;;;;;27.72;47.91;100569.66;1782513;80;25428;-61
2023/09/02 08:10:10;;;;;;;65.80;61.90;;;;;;;27.88;47.57;100571.20;1782501;79;27371;-61
2023/09/02 08:12:39;;;;;;;66.50;62.62;;;;;;;28.09;47.28;100566.53;1782562;80;25609;-59
2023/09/02 08:15:10;;;;;;;63.87;60.28;;;;;;;28.34;47.11;100568.10;1782197;80;27544;-58
2023/09/02 08:17:43;;;;;;;66.62;62.30;;;;;;;28.60;46.47;100567.84;1781580;80;26174;-61
2023/09/02 08:20:14;;;;;;;62.70;58.95;;;;;;;28.85;46.21;100572.92;1781559;79;25521;-60
2023/09/02 08:22:42;;;;;;;62.67;59.08;;;;;;;26.58;44.30;100202.38;1782436;80;25428;-59
2023/09/02 08:25:12;;;;;;;60.58;56.98;;;;;;;29.08;44.09;100570.64;1781563;80;25525;-59
2023/09/02 08:27:38;;;;;;;63.17;59.38;;;;;;;29.16;43.19;100573.49;1782461;80;28176;-59
2023/09/02 08:30:10;;;;;;;59.13;55.85;;;;;;;29.21;42.58;100576.39;1782220;80;25392;-59
2023/09/02 08:32:37;;;;;;;58.75;55.35;;;;;;;29.08;42.01;100575.44;1781941;79;25377;-60
2023/09/02 08:35:08;;;;;;;61.85;58.23;;;;;;;26.84;41.95;100220.22;1781810;79;25533;-58
2023/09/02 08:37:37;;;;;;;63.52;59.50;;;;;;;;;;1781954;80;25597;-58
2023/09/02 08:40:09;;;;;;;66.50;62.35;;;;;;;;;;1781866;80;27676;-58
2023/09/02 08:42:36;;;;;;;45.17;42.53;;;;;;;;;;1781872;80;25661;-59
2023/09/02 08:45:11;;;;;;;;;;;;;;;;;;1784545;80;25652;-58
2023/09/02 08:47:41;;;;;;;61.60;58.10;;;;;;;;;;1781921;80;25616;-59
2023/09/02 08:50:13;;;;;;;5.35;5.08;;;;;;;;;;1781931;80;25797;-58
2023/09/02 16:07:06;;;;;;;4.55;2.90;;;;;;;24.86;37.31;100717.00;1887131;76;25293;-63
2023/09/02 16:13:59;;;;;;;4.45;2.20;;;;;;;24.50;38.10;100713.64;1868268;76;25608;-63
2023/09/02 16:16:25;;;;;;;4.58;2.90;;;;;;;24.27;38.35;100716.77;1824546;78;25521;-63
2023/09/02 16:18:52;;;;;;;3.92;2.83;;;;;;;24.09;38.77;100721.47;1824456;78;29600;-61
2023/09/02 16:21:18;;;;;;;4.97;4.10;;;;;;;23.93;38.81;100722.61;1824478;78;25599;-60
2023/09/02 16:23:44;;;;;;;31.27;29.48;;;;;;;23.80;39.90;100731.83;1824505;78;25592;-60
2023/09/02 16:26:11;;;;;;;67.42;63.73;;;;;;;23.66;40.05;100733.13;1824423;78;25435;-61
2023/09/02 16:28:42;;;;;;;69.67;65.57;;;;;;;23.49;39.99;100734.03;1824546;78;25380;-60
2023/09/02 16:31:09;;;;;;;69.80;65.80;;;;;;;23.35;40.41;100733.97;1824467;78;27529;-63
2023/09/02 16:33:35;;;;;;;71.28;67.20;;;;;;;23.21;41.36;100733.90;1824383;78;25387;-61
2023/09/02 16:36:02;;;;;;;71.20;67.20;;;;;;;23.05;41.43;100733.55;1824480;78;25574;-62
2023/09/02 16:38:29;;;;;;;70.47;66.33;;;;;;;22.90;42.17;100733.23;1824449;78;25383;-62
2023/09/02 16:40:59;;;;;;;68.05;64.15;;;;;;;22.72;42.62;100731.14;1824505;78;25384;-63
2023/09/02 16:43:23;;;;;;;64.60;60.63;;;;;;;22.59;43.60;100733.97;1823314;78;27490;-63
2023/09/02 16:45:54;;;;;;;21.55;20.02;;;;;;;22.44;44.19;100730.88;1824414;78;25183;-62
2023/09/02 17:04:01;;;;;;;6.00;2.47;;;;;;;21.69;45.17;100748.16;1868417;76;25283;-60
2023/09/02 17:10:18;;;;;;;3.75;2.45;;;;;;;21.43;45.52;100747.56;1868762;76;25570;-61
2023/09/02 17:12:52;;;;;;;6.47;3.25;;;;;;;21.29;46.21;100750.13;1757420;81;25296;-62
2023/09/02 17:15:25;;;;;;;5.58;2.98;;;;;;;21.16;46.96;100746.78;1771630;81;28222;-65
2023/09/02 17:17:54;;;;;;;4.35;3.52;;;;;;;21.05;47.73;100746.63;1756182;81;25634;-61
2023/09/02 17:20:29;;;;;;;4.95;2.90;;;;;;;20.93;47.92;100744.09;1777682;80;25356;-63
2023/09/02 17:23:10;;;;;;;5.17;3.20;;;;;;;20.82;48.61;100748.02;1756366;81;25254;-61
2023/09/02 17:25:40;;;;;;;7.62;5.65;;;;;;;20.70;48.79;100748.44;1777262;80;25428;-57
2023/09/02 17:28:11;;;;;;;9.60;5.92;;;;;;;20.60;48.80;100746.83;1777128;80;27510;-61
2023/09/02 17:30:38;;;;;;;10.40;7.10;;;;;;;20.46;48.99;100745.42;1776229;80;25694;-57
2023/09/02 17:33:05;;;;;;;10.05;6.05;;;;;;;20.36;49.30;100750.14;1757045;81;25487;-61
2023/09/02 17:35:32;;;;;;;4.92;3.72;;;;;;;20.24;49.75;100749.73;1777094;80;25663;-61
2023/09/02 17:37:59;;;;;;;3.67;2.90;;;;;;;20.15;50.08;100757.41;1777156;80;25626;-63
2023/09/02 17:40:30;;;;;;;6.90;3.33;;;;;;;20.04;50.35;100749.53;1757048;81;27466;-62
2023/09/02 17:42:55;;;;;;;10.35;5.35;;;;;;;19.91;50.67;100757.92;1770860;81;26402;-62
2023/09/02 17:45:24;;;;;;;9.48;6.22;;;;;;;19.79;51.06;100760.81;1756970;81;25405;-63
2023/09/02 17:47:50;;;;;;;7.78;5.40;;;;;;;19.68;51.35;100766.05;1777021;80;25398;-60
2023/09/02 17:50:17;;;;;;;6.10;3.30;;;;;;;19.54;51.32;100763.77;1777069;80;25404;-60
2023/09/02 17:52:44;;;;;;;6.10;4.45;;;;;;;19.43;51.53;100777.84;1756928;81;27917;-63
2023/09/02 17:55:10;;;;;;;8.58;4.55;;;;;;;19.30;51.91;100777.15;1776930;80;25538;-58
2023/09/02 17:57:37;;;;;;;9.08;6.10;;;;;;;19.20;52.01;100782.59;1777034;80;25446;-57
2023/09/02 18:00:06;;;;;;;10.88;7.72;;;;;;;19.09;52.24;100780.19;1776928;80;25486;-58
2023/09/02 18:02:32;;;;;;;9.33;7.90;;;;;;;18.99;52.51;100786.21;1757071;81;32979;-59
2023/09/02 18:05:01;;;;;;;9.90;7.90;;;;;;;18.88;52.81;100787.88;1777008;80;27458;-59
2023/09/02 18:07:27;;;;;;;6.80;6.10;;;;;;;18.78;52.95;100785.87;1777253;80;25747;-61
2023/09/02 18:09:54;;;;;;;8.78;5.40;;;;;;;18.71;53.94;100790.36;1760999;81;25376;-58
2023/09/02 18:12:22;;;;;;;7.83;5.17;;;;;;;18.64;54.00;100793.70;1793899;80;26258;-57
2023/09/02 18:14:49;;;;;;;7.12;5.00;;;;;;;18.55;54.16;100790.34;1762584;81;25543;-57
2023/09/02 18:17:17;;;;;;;5.75;4.53;;;;;;;18.48;54.38;100793.11;1793902;80;28098;-58
2023/09/02 18:19:44;;;;;;;7.33;4.83;;;;;;;18.38;54.40;100787.35;1762307;81;25550;-60
2023/09/02 18:22:11;;;;;;;5.78;4.55;;;;;;;18.31;54.71;100788.53;1773411;80;25450;-58
2023/09/02 18:24:38;;;;;;;5.60;4.70;;;;;;;18.22;55.84;100788.69;1762068;81;25756;-57
2023/09/02 18:27:06;;;;;;;6.28;4.15;;;;;;;18.16;56.13;100789.48;1793434;80;25483;-59
2023/09/02 18:29:33;;;;;;;5.42;4.20;;;;;;;18.08;56.18;100790.42;1762023;81;27465;-58
2023/09/02 18:32:00;;;;;;;6.12;4.05;;;;;;;18.00;56.54;100790.81;1793313;79;25810;-58
2023/09/02 18:34:28;;;;;;;4.92;4.40;;;;;;;17.92;57.23;100799.37;1762004;81;25574;-62
2023/09/02 18:36:54;;;;;;;7.35;4.50;;;;;;;17.85;57.18;100798.34;1773482;80;26085;-61
2023/09/02 18:39:24;;;;;;;6.05;5.00;;;;;;;17.78;57.83;100800.30;1762109;81;25601;-60
2023/09/02 18:41:51;;;;;;;12.33;9.40;;;;;;;17.72;57.88;100797.02;1773306;80;27494;-64
2023/09/02 18:44:19;;;;;;;7.35;5.87;;;;;;;17.68;58.20;100798.05;1761889;81;25804;-61
2023/09/02 18:46:49;;;;;;;8.65;5.92;;;;;;;17.61;58.90;100791.00;1773406;80;25619;-65
2023/09/02 18:49:18;;;;;;;9.20;6.25;;;;;;;17.52;58.59;100802.85;1761991;81;25435;-65
2023/09/02 18:51:45;;;;;;;6.30;5.62;;;;;;;17.44;59.19;100803.77;1792624;80;25539;-58
2023/09/02 18:54:11;;;;;;;18.17;6.58;;;;;;;17.33;58.94;100807.54;1761998;81;27473;-65
2023/09/02 18:56:38;;;;;;;10.25;6.65;;;;;;;17.27;59.22;100810.84;1793249;80;25581;-64
2023/09/02 18:59:09;;;;;;;7.70;6.03;;;;;;;17.21;59.51;100815.72;1761987;81;25433;-64
2023/09/02 19:01:36;;;;;;;8.30;5.45;;;;;;;17.16;59.49;100822.23;1773402;80;25431;-64
2023/09/02 19:04:04;;;;;;;8.38;5.45;;;;;;;17.08;59.54;100816.87;1762083;81;25447;-65
2023/09/02 19:06:34;;;;;;;7.65;5.10;;;;;;;17.02;59.82;100818.22;1793337;80;28409;-65
2023/09/02 19:09:03;;;;;;;5.70;5.10;;;;;;;16.97;60.08;100827.43;1760623;81;25964;-65
2023/09/02 19:11:30;;;;;;;6.80;5.28;;;;;;;16.90;60.35;100827.20;1770805;81;25619;-63
2023/09/02 19:13:58;;;;;;;6.97;5.05;;;;;;;16.83;60.58;100826.35;1756323;81;26250;-64
2023/09/02 19:16:25;;;;;;;6.72;4.62;;;;;;;16.77;61.21;100829.87;1776477;80;25599;-64
2023/09/02 19:18:53;;;;;;;5.47;4.37;;;;;;;16.68;61.19;100831.88;1776430;80;27356;-64
2023/09/02 19:21:20;;;;;;;6.25;5.12;;;;;;;16.61;61.29;100831.64;1776315;80;25768;-66
2023/09/02 19:23:47;;;;;;;6.28;5.33;;;;;;;16.56;61.60;100830.48;1756322;81;25599;-62
2023/09/02 19:26:15;;;;;;;7.87;5.17;;;;;;;16.51;61.71;100834.22;1776370;80;25401;-63
2023/09/02 19:28:41;;;;;;;6.05;5.00;;;;;;;16.47;61.53;100839.34;1776404;80;25216;-62
2023/09/02 19:31:07;;;;;;;6.60;5.35;;;;;;;16.38;61.58;100843.52;1776401;80;27999;-62
2023/09/02 19:33:34;;;;;;;8.75;5.42;;;;;;;16.31;61.73;100837.23;1776318;80;25377;-62
2023/09/02 19:36:00;;;;;;;6.65;5.20;;;;;;;16.23;61.88;100834.80;1776457;80;25547;-62
2023/09/02 19:38:26;;;;;;;6.50;4.95;;;;;;;16.18;62.34;100838.30;1756287;81;25793;-56
2023/09/02 19:40:54;;;;;;;10.55;5.62;;;;;;;16.12;62.41;100828.70;1769798;81;25734;-59
2023/09/02 19:43:20;;;;;;;13.78;11.78;;;;;;;16.04;62.52;100833.12;1755620;81;27457;-54
2023/09/02 19:45:46;;;;;;;11.10;8.98;;;;;;;15.97;62.80;100835.01;1769450;80;25666;-57
2023/09/02 19:48:12;;;;;;;9.65;6.55;;;;;;;15.89;63.25;100837.23;1755480;81;25665;-57
2023/09/02 19:50:45;;;;;;;10.05;6.03;;;;;;;15.84;63.36;100842.88;1769442;81;25773;-59
2023/09/02 19:53:11;;;;;;;8.75;6.65;;;;;;;15.78;63.73;100844.19;1755651;81;25320;-57
2023/09/02 19:55:46;;;;;;;14.05;9.95;;;;;;;15.75;64.20;100840.20;1770307;81;28078;-58
2023/09/02 19:58:13;;;;;;;11.08;6.60;;;;;;;15.71;64.72;100837.86;1756204;81;25854;-58
2023/09/02 20:00:45;;;;;;;11.12;7.35;;;;;;;15.63;64.62;100839.53;1770371;81;25611;-59
2023/09/02 20:03:17;;;;;;;11.68;7.45;;;;;;;15.57;64.79;100841.41;1756255;81;25647;-58
2023/09/02 20:05:45;;;;;;;8.58;6.58;;;;;;;15.50;65.24;100846.80;1770373;81;25578;-59
2023/09/02 20:08:14;;;;;;;11.95;7.92;;;;;;;15.42;64.97;100846.84;1756284;81;27455;-59
2023/09/02 20:10:42;;;;;;;11.93;8.30;;;;;;;15.35;65.04;100854.17;1776355;80;26153;-56
2023/09/02 20:13:08;;;;;;;11.73;7.75;;;;;;;15.29;65.71;100854.13;1776321;80;25414;-56
2023/09/02 20:15:34;;;;;;;11.43;7.40;;;;;;;15.23;65.71;100860.30;1776354;80;25679;-58
2023/09/02 20:18:03;;;;;;;16.60;8.65;;;;;;;15.19;66.10;100853.10;1776400;80;25607;-54
2023/09/02 20:20:30;;;;;;;11.85;8.90;;;;;;;15.14;66.83;100854.10;1776438;80;28073;-61
2023/09/02 20:22:57;;;;;;;17.95;12.78;;;;;;;15.08;67.09;100855.39;1756206;81;25397;-57
2023/09/02 20:25:24;;;;;;;15.98;11.48;;;;;;;15.02;66.76;100847.97;1776345;80;25620;-56
2023/09/02 20:27:50;;;;;;;12.10;9.55;;;;;;;15.00;66.86;100857.58;1776338;79;25747;-57
2023/09/02 20:30:16;;;;;;;10.72;7.65;;;;;;;14.97;67.05;100856.89;1776364;80;25501;-57
2023/09/02 20:32:43;;;;;;;12.75;6.65;;;;;;;14.91;66.99;100855.70;1776382;80;27530;-58
2023/09/02 20:35:10;;;;;;;8.90;6.75;;;;;;;14.86;67.19;100857.77;1776217;80;25602;-56
2023/09/02 20:37:38;;;;;;;10.65;6.30;;;;;;;14.82;67.69;100863.64;1756288;81;25614;-57
2023/09/02 20:40:07;;;;;;;7.75;6.85;;;;;;;14.77;67.64;100865.97;1770288;81;25716;-57
2023/09/02 20:42:33;;;;;;;8.55;6.78;;;;;;;14.73;67.50;100866.39;1756402;81;25456;-56
2023/09/02 20:44:59;;;;;;;8.30;7.10;;;;;;;14.66;67.49;100866.05;1770313;81;27539;-57
2023/09/02 20:47:26;;;;;;;11.48;6.75;;;;;;;14.61;67.70;100863.50;1756228;81;25418;-57
2023/09/02 20:49:52;;;;;;;10.70;7.60;;;;;;;14.55;67.76;100863.63;1742216;81;25501;-58
2023/09/02 20:52:20;;;;;;;13.62;7.45;;;;;;;14.51;68.28;100861.90;1756232;81;25471;-57
2023/09/02 20:54:46;;;;;;;7.85;6.78;;;;;;;14.46;68.35;100859.34;1776388;80;25674;-58
2023/09/02 20:57:12;;;;;;;8.18;6.55;;;;;;;14.42;68.54;100859.72;1776345;80;27504;-58
2023/09/02 20:59:38;;;;;;;12.30;6.83;;;;;;;14.36;68.47;100863.17;1776251;80;25659;-58
2023/09/02 21:02:05;;;;;;;9.65;6.97;;;;;;;14.33;68.56;100861.09;1756139;81;25705;-56
2023/09/02 21:04:31;;;;;;;9.45;7.00;;;;;;;14.27;68.85;100862.36;1776332;80;25560;-57
2023/09/02 21:06:57;;;;;;;12.75;8.43;;;;;;;14.23;68.87;100864.92;1776295;80;25441;-57
2023/09/02 21:09:23;;;;;;;9.05;7.30;;;;;;;14.19;68.98;100859.89;1776173;80;27445;-57
2023/09/02 21:11:49;;;;;;;16.73;10.30;;;;;;;14.15;69.25;100859.73;1776272;80;25382;-57
2023/09/02 21:14:15;;;;;;;11.40;8.35;;;;;;;14.12;69.38;100861.72;1756194;81;25473;-56
2023/09/02 21:16:42;;;;;;;11.00;7.25;;;;;;;14.09;69.35;100864.28;1756194;81;25441;-57
2023/09/02 21:19:08;;;;;;;10.15;8.58;;;;;;;14.04;69.53;100865.23;1756225;81;25664;-58
2023/09/02 21:21:34;;;;;;;13.70;8.40;;;;;;;14.01;69.70;100865.32;1756323;81;27485;-58
2023/09/02 21:24:04;;;;;;;9.88;7.80;;;;;;;13.97;69.72;100865.70;1756209;81;25696;-56
2023/09/02 21:26:29;;;;;;;9.80;7.58;;;;;;;13.92;70.05;100863.70;1756031;81;25598;-58
2023/09/02 21:28:55;;;;;;;12.47;8.50;;;;;;;13.88;69.99;100864.10;1756288;81;25564;-54
2023/09/02 21:31:22;;;;;;;12.33;8.75;;;;;;;13.83;70.25;100863.69;1756270;81;25385;-55
2023/09/02 21:33:53;;;;;;;16.05;9.08;;;;;;;13.78;70.46;100858.40;1756264;81;27827;-57
2023/09/02 21:36:18;;;;;;;18.20;10.78;;;;;;;13.78;71.68;100861.91;1755234;81;26434;-59
2023/09/02 21:38:48;;;;;;;40.75;36.42;;;;;;;13.81;72.81;100861.28;1745628;81;25473;-60
2023/09/02 21:41:15;;;;;;;49.88;43.45;;;;;;;13.87;73.35;100857.05;1756358;81;25548;-60
2023/09/02 21:43:41;;;;;;;25.05;20.23;;;;;;;13.91;73.84;100860.19;1745610;82;25770;-62
2023/09/02 21:46:12;;;;;;;16.77;12.73;;;;;;;13.95;74.13;100862.50;1756314;81;28142;-68
2023/09/02 21:48:38;;;;;;;13.53;10.80;;;;;;;13.99;73.77;100862.09;1739753;82;25694;-64
2023/09/02 21:51:09;;;;;;;11.60;8.88;;;;;;;14.00;73.59;100856.12;1756131;81;25532;-64
2023/09/02 21:53:41;;;;;;;12.55;9.03;;;;;;;14.01;73.47;100861.24;1756218;81;25562;-65
2023/09/02 21:56:09;;;;;;;14.50;9.30;;;;;;;14.02;73.49;100859.31;1756346;81;25397;-64
2023/09/02 21:58:37;;;;;;;13.58;10.70;;;;;;;14.04;73.39;100856.28;1756329;81;28077;-64
2023/09/02 22:01:08;;;;;;;23.47;15.23;;;;;;;14.03;73.16;100858.75;1745578;82;25452;-61
2023/09/02 22:03:36;;;;;;;18.75;11.85;;;;;;;14.01;73.40;100851.72;1744195;82;25581;-61
2023/09/02 22:06:09;;;;;;;16.87;10.45;;;;;;;14.00;73.28;100858.84;1744805;82;26058;-61
2023/09/02 22:08:43;;;;;;;16.30;10.85;;;;;;;13.97;72.95;100861.63;1744083;82;25873;-61
2023/09/02 22:11:12;;;;;;;13.10;10.05;;;;;;;13.92;72.56;100865.06;1754908;81;26973;-60
2023/09/02 22:13:38;;;;;;;14.80;10.03;;;;;;;13.85;72.49;100864.16;1739475;82;25739;-60
2023/09/02 22:16:06;;;;;;;13.50;8.70;;;;;;;13.80;72.25;100865.67;1755819;81;25686;-60
2023/09/02 22:18:33;;;;;;;13.43;9.05;;;;;;;13.73;71.96;100862.62;1755823;81;26635;-59
2023/09/02 22:21:00;;;;;;;14.25;8.93;;;;;;;13.69;72.00;100857.56;1756105;81;25551;-61
2023/09/02 22:23:30;;;;;;;12.43;9.48;;;;;;;13.64;71.94;100857.17;1756340;81;27488;-60
2023/09/02 22:26:03;;;;;;;13.62;9.48;;;;;;;13.58;72.18;100855.13;1756289;81;25447;-59
2023/09/02 22:28:32;;;;;;;17.95;12.40;;;;;;;13.55;72.24;100859.05;1755547;81;25626;-58
2023/09/02 22:30:59;;;;;;;;;;;;;;;13.48;72.17;100852.70;1740719;82;25614;-59
2023/09/02 22:33:28;;;;;;;20.12;12.95;;;;;;;13.43;72.83;100854.20;1738729;82;25708;-59
2023/09/02 22:35:56;;;;;;;18.12;12.63;;;;;;;13.37;72.48;100857.63;1755386;81;27523;-59
2023/09/02 22:38:26;;;;;;;15.40;12.70;;;;;;;13.32;72.77;100859.13;1744438;81;25751;-59
2023/09/02 22:40:52;;;;;;;14.75;11.45;;;;;;;13.27;72.91;100854.59;1744561;82;25973;-59
2023/09/02 22:43:21;;;;;;;18.27;15.00;;;;;;;13.23;72.75;100852.84;1744721;82;26444;-59
2023/09/02 22:45:48;;;;;;;25.23;16.87;;;;;;;13.19;72.97;100849.12;1745781;82;25570;-58
2023/09/02 22:48:17;;;;;;;22.30;16.30;;;;;;;13.17;73.52;100856.80;1745629;82;27540;-59
2023/09/02 22:50:44;;;;;;;21.70;16.02;;;;;;;13.13;73.49;100856.63;1756338;81;25510;-58
2023/09/02 22:53:13;;;;;;;22.65;16.02;;;;;;;13.10;73.65;100849.66;1745638;82;25630;-55
2023/09/02 22:55:40;;;;;;;19.20;15.72;;;;;;;13.06;73.97;100850.28;1756255;81;25545;-59
2023/09/02 22:58:10;;;;;;;19.45;15.53;;;;;;;13.04;74.38;100853.87;1745662;81;25474;-56
2023/09/02 23:00:36;;;;;;;18.95;16.17;;;;;;;13.01;74.43;100848.27;1745766;82;27485;-59
2023/09/02 23:03:07;;;;;;;22.42;17.02;;;;;;;12.98;74.32;100844.81;1745543;82;25610;-55
2023/09/02 23:05:34;;;;;;;23.12;18.75;;;;;;;12.95;74.19;100850.28;1745704;82;25429;-57
2023/09/02 23:08:03;;;;;;;22.60;18.20;;;;;;;12.91;74.03;100843.89;1756253;81;25680;-57
2023/09/02 23:10:32;;;;;;;25.72;19.73;;;;;;;12.90;74.16;100842.28;1740586;82;25674;-59
2023/09/02 23:12:58;;;;;;;;;;;;;;;12.88;74.59;100842.58;1764579;81;27519;-59
2023/09/02 23:15:26;;;;;;;24.47;17.87;;;;;;;12.88;74.97;100850.73;1761878;81;25592;-59
2023/09/02 23:17:52;;;;;;;24.20;18.10;;;;;;;12.86;75.21;100851.60;1761929;81;25450;-59
2023/09/02 23:20:20;;;;;;;24.92;17.87;;;;;;;12.84;74.88;100850.33;1761886;81;25615;-59
2023/09/02 23:22:49;;;;;;;25.70;18.60;;;;;;;12.83;74.75;100852.78;1742713;82;25632;-59
2023/09/02 23:25:16;;;;;;;26.77;18.25;;;;;;;12.80;74.71;100854.19;1761347;81;27170;-59
2023/09/02 23:27:48;;;;;;;26.15;17.75;;;;;;;12.80;74.95;100857.47;1760711;81;25728;-59
2023/09/02 23:30:18;;;;;;;21.80;17.52;;;;;;;12.77;74.89;100859.44;1761183;81;25551;-59
2023/09/02 23:32:46;;;;;;;;;;;;;;;12.74;75.25;100864.95;1745259;82;25631;-59
2023/09/02 23:35:12;;;;;;;25.35;17.98;;;;;;;12.71;75.48;100863.64;1742714;82;25632;-59
2023/09/02 23:37:39;;;;;;;27.73;17.12;;;;;;;12.66;75.14;100859.69;1761910;81;29717;-59
2023/09/02 23:40:08;;;;;;;23.98;18.37;;;;;;;12.62;75.00;100858.72;1742568;82;25601;-59
2023/09/02 23:42:34;;;;;;;22.27;17.92;;;;;;;12.61;75.53;100863.89;1762060;81;25472;-60
2023/09/02 23:45:00;;;;;;;22.10;18.42;;;;;;;12.60;76.14;100864.19;1742608;82;25504;-58
2023/09/02 23:47:26;;;;;;;21.02;16.82;;;;;;;12.58;76.29;100870.48;1761927;81;25597;-59
2023/09/02 23:49:53;;;;;;;23.83;17.95;;;;;;;12.54;76.09;100860.02;1761942;81;29659;-58
2023/09/02 23:52:20;;;;;;;19.60;16.75;;;;;;;12.51;76.56;100858.70;1761948;81;25572;-59
2023/09/02 23:54:46;;;;;;;20.95;16.55;;;;;;;12.48;76.44;100859.31;1761852;81;25691;-59
2023/09/02 23:57:13;;;;;;;21.00;16.97;;;;;;;12.45;76.24;100866.17;1761821;81;25486;-59
2023/09/02 23:59:39;;;;;;;20.12;16.93;;;;;;;12.45;76.28;100868.09;1761948;81;25637;-59
